createdAt,value
2023-02-16T00:00:48.123Z,6.28
2023-02-16T00:03:22.082Z,6.22
2023-02-16T00:05:50.569Z,6.12
2023-02-16T00:08:17.847Z,6.05
2023-02-16T00:11:06.292Z,6.19
2023-02-16T00:13:44.853Z,6.31
2023-02-16T00:16:24.668Z,6.18
2023-02-16T00:18:52.807Z,6.37
2023-02-16T00:21:20.545Z,6.51
2023-02-16T00:23:48.708Z,6.57
2023-02-16T00:26:22.832Z,6.57
2023-02-16T00:28:58.645Z,6.57
2023-02-16T00:31:32.356Z,6.51
2023-02-16T00:34:14.178Z,6.61
2023-02-16T00:36:43.697Z,6.52
2023-02-16T00:39:10.624Z,6.46
2023-02-16T00:41:55.077Z,6.43
2023-02-16T00:44:41.702Z,6.31
2023-02-16T00:47:21.980Z,6.23
2023-02-16T00:49:54.122Z,6.37
2023-02-16T00:52:37.122Z,6.34
2023-02-16T00:55:13.618Z,6.04
2023-02-16T00:58:18.538Z,6.10
2023-02-16T01:00:55.632Z,6.14
2023-02-16T01:03:29.066Z,6.21
2023-02-16T01:06:15.362Z,6.31
2023-02-16T01:09:01.607Z,6.07
2023-02-16T01:11:29.980Z,6.02
2023-02-16T01:13:58.467Z,6.08
2023-02-16T01:16:37.397Z,6.05
2023-02-16T01:19:07.240Z,6.14
2023-02-16T01:21:34.228Z,5.94
2023-02-16T01:24:03.283Z,5.87
2023-02-16T01:26:32.626Z,5.87
2023-02-16T01:29:02.994Z,5.74
2023-02-16T01:31:30.010Z,5.65
2023-02-16T01:33:56.975Z,5.66
2023-02-16T01:36:30.044Z,5.46
2023-02-16T01:38:56.996Z,5.53
2023-02-16T01:42:04.488Z,5.43
2023-02-16T01:44:46.134Z,5.75
2023-02-16T01:47:36.930Z,5.97
2023-02-16T01:50:22.232Z,6.03
2023-02-16T01:53:02.923Z,5.80
2023-02-16T01:55:42.440Z,5.75
2023-02-16T01:58:31.849Z,5.58
2023-02-16T02:00:58.899Z,5.72
2023-02-16T02:03:54.664Z,5.81
2023-02-16T02:06:33.617Z,5.77
2023-02-16T02:09:11.721Z,5.82
2023-02-16T02:12:13.121Z,5.61
2023-02-16T02:14:40.735Z,5.62
2023-02-16T02:17:16.527Z,5.74
2023-02-16T02:20:05.458Z,5.72
2023-02-16T02:23:33.624Z,5.66
2023-02-16T02:26:40.721Z,5.75
2023-02-16T02:29:27.618Z,5.75
2023-02-16T02:32:17.978Z,5.59
2023-02-16T02:34:56.987Z,5.77
2023-02-16T02:37:57.335Z,5.65
2023-02-16T02:40:34.290Z,5.49
2023-02-16T02:43:25.190Z,5.57
2023-02-16T02:46:01.844Z,5.65
2023-02-16T02:48:33.709Z,5.76
2023-02-16T02:51:28.550Z,5.81
2023-02-16T02:54:20.666Z,5.74
2023-02-16T02:57:12.732Z,5.76
2023-02-16T03:00:01.950Z,5.87
2023-02-16T03:02:31.540Z,5.92
2023-02-16T03:05:00.025Z,5.83
2023-02-16T03:07:51.450Z,5.93
2023-02-16T03:10:44.915Z,6.00
2023-02-16T03:13:35.166Z,6.06
2023-02-16T03:16:14.346Z,6.02
2023-02-16T03:19:05.194Z,5.94
2023-02-16T03:21:52.444Z,6.02
2023-02-16T03:24:48.674Z,5.91
2023-02-16T03:27:40.979Z,5.76
2023-02-16T03:30:12.200Z,5.99
2023-02-16T03:32:42.200Z,6.02
2023-02-16T03:35:12.797Z,5.99
2023-02-16T03:37:46.976Z,6.05
2023-02-16T03:40:30.913Z,6.01
2023-02-16T03:43:04.624Z,5.97
2023-02-16T03:45:35.179Z,6.06
2023-02-16T03:48:02.544Z,6.12
2023-02-16T03:50:29.964Z,6.17
2023-02-16T03:53:09.126Z,6.22
2023-02-16T03:55:38.428Z,6.10
2023-02-16T03:58:10.583Z,6.18
2023-02-16T04:00:38.279Z,6.04
2023-02-16T04:03:05.992Z,6.08
2023-02-16T04:05:33.669Z,6.22
2023-02-16T04:08:00.763Z,6.26
2023-02-16T04:10:27.879Z,6.18
2023-02-16T04:12:54.807Z,6.23
2023-02-16T04:15:26.272Z,6.28
2023-02-16T04:17:54.062Z,6.04
2023-02-16T04:20:25.643Z,6.01
2023-02-16T04:22:56.154Z,5.99
2023-02-16T04:25:23.427Z,5.88
2023-02-16T04:27:55.710Z,5.95
2023-02-16T04:30:30.604Z,6.24
2023-02-16T04:32:58.738Z,6.25
2023-02-16T04:35:25.700Z,6.24
2023-02-16T04:37:57.229Z,6.15
2023-02-16T04:40:24.149Z,6.17
2023-02-16T04:42:51.102Z,6.14
2023-02-16T04:45:18.034Z,6.13
2023-02-16T04:47:47.900Z,6.05
2023-02-16T04:50:14.823Z,5.91
2023-02-16T04:52:42.253Z,5.80
2023-02-16T04:55:12.273Z,5.86
2023-02-16T04:57:40.264Z,5.89
2023-02-16T05:00:13.159Z,5.72
2023-02-16T05:02:47.037Z,5.71
2023-02-16T05:05:16.112Z,5.62
2023-02-16T05:07:45.666Z,5.61
2023-02-16T05:10:12.633Z,5.69
2023-02-16T05:12:58.026Z,5.73
2023-02-16T05:15:25.001Z,5.81
2023-02-16T05:17:56.625Z,5.80
2023-02-16T05:20:45.791Z,5.82
2023-02-16T05:23:12.729Z,5.80
2023-02-16T05:25:42.092Z,5.78
2023-02-16T05:28:09.146Z,5.77
2023-02-16T05:30:40.859Z,5.82
2023-02-16T05:33:10.205Z,5.81
2023-02-16T05:35:39.643Z,5.81
2023-02-16T05:38:11.139Z,5.90
2023-02-16T05:40:38.034Z,5.86
2023-02-16T05:43:07.365Z,5.91
2023-02-16T05:45:34.256Z,5.82
2023-02-16T05:48:01.109Z,5.80
2023-02-16T05:50:32.564Z,5.79
2023-02-16T05:53:02.470Z,5.88
2023-02-16T05:55:29.370Z,5.74
2023-02-16T05:57:56.339Z,5.75
2023-02-16T06:00:25.776Z,5.76
2023-02-16T06:02:57.284Z,5.65
2023-02-16T06:05:26.711Z,5.73
2023-02-16T06:07:53.530Z,5.75
2023-02-16T06:10:20.487Z,5.74
2023-02-16T06:12:50.369Z,5.81
2023-02-16T06:15:18.015Z,5.74
2023-02-16T06:17:44.941Z,5.82
2023-02-16T06:20:12.167Z,5.94
2023-02-16T06:22:38.988Z,5.82
2023-02-16T06:25:08.455Z,5.89
2023-02-16T06:27:35.386Z,5.99
2023-02-16T06:30:02.886Z,5.88
2023-02-16T06:32:29.951Z,5.86
2023-02-16T06:35:01.960Z,5.87
2023-02-16T06:37:28.873Z,6.04
2023-02-16T06:39:55.773Z,6.19
2023-02-16T06:42:22.672Z,6.29
2023-02-16T06:44:52.576Z,6.28
2023-02-16T06:47:19.471Z,6.22
2023-02-16T06:49:46.299Z,6.25
2023-02-16T06:52:13.237Z,6.31
2023-02-16T06:54:40.099Z,6.45
2023-02-16T06:57:09.146Z,6.38
2023-02-16T06:59:36.008Z,6.28
2023-02-16T07:02:06.096Z,6.45
2023-02-16T07:04:35.999Z,6.53
2023-02-16T07:07:03.798Z,6.73
2023-02-16T07:09:30.731Z,7.07
2023-02-16T07:11:58.395Z,7.57
2023-02-16T07:14:25.257Z,7.80
2023-02-16T07:16:54.637Z,7.66
2023-02-16T07:19:21.486Z,7.64
2023-02-16T07:21:50.911Z,7.44
2023-02-16T07:24:17.870Z,7.39
2023-02-16T07:26:44.700Z,7.72
2023-02-16T07:29:16.081Z,7.77
2023-02-16T07:31:48.676Z,8.46
2023-02-16T07:34:19.650Z,9.43
2023-02-16T07:36:52.225Z,10.06
2023-02-16T07:39:19.564Z,10.34
2023-02-16T07:41:46.496Z,10.48
2023-02-16T07:44:13.398Z,11.37
2023-02-16T07:46:40.411Z,11.84
2023-02-16T07:49:07.304Z,11.39
2023-02-16T07:51:35.064Z,10.82
2023-02-16T07:54:01.957Z,10.10
2023-02-16T07:56:31.610Z,9.60
2023-02-16T07:59:05.456Z,9.37
2023-02-16T08:01:35.277Z,9.56
2023-02-16T08:04:02.146Z,8.97
2023-02-16T08:06:29.040Z,8.96
2023-02-16T08:08:58.672Z,9.21
2023-02-16T08:11:28.359Z,9.70
2023-02-16T08:13:55.421Z,10.11
2023-02-16T08:16:27.293Z,10.38
2023-02-16T08:18:58.787Z,9.95
2023-02-16T08:21:29.933Z,9.53
2023-02-16T08:24:06.242Z,9.90
2023-02-16T08:26:44.996Z,9.88
2023-02-16T08:29:17.973Z,10.23
2023-02-16T08:31:50.517Z,10.27
2023-02-16T08:34:20.395Z,11.03
2023-02-16T08:36:56.452Z,10.93
2023-02-16T08:39:29.882Z,11.48
2023-02-16T08:41:59.244Z,12.36
2023-02-16T08:44:28.966Z,11.61
2023-02-16T08:47:01.504Z,11.39
2023-02-16T08:49:28.497Z,11.14
2023-02-16T08:51:58.628Z,10.92
2023-02-16T08:54:30.664Z,11.22
2023-02-16T08:56:59.991Z,10.92
2023-02-16T08:59:28.750Z,10.88
2023-02-16T09:02:00.215Z,11.10
2023-02-16T09:04:31.014Z,11.16
2023-02-16T09:06:59.682Z,11.02
2023-02-16T09:09:27.981Z,10.13
2023-02-16T09:11:59.660Z,9.79
2023-02-16T09:14:31.344Z,9.73
2023-02-16T09:17:00.751Z,9.45
2023-02-16T09:19:30.139Z,9.75
2023-02-16T09:21:57.055Z,9.51
2023-02-16T09:24:23.947Z,9.95
2023-02-16T09:26:53.439Z,9.93
2023-02-16T09:29:24.830Z,9.98
2023-02-16T09:31:52.345Z,10.07
2023-02-16T09:34:22.677Z,10.10
2023-02-16T09:36:50.824Z,10.17
2023-02-16T09:39:20.759Z,10.16
2023-02-16T09:42:05.792Z,10.02
2023-02-16T09:44:45.412Z,9.71
2023-02-16T09:47:33.068Z,9.77
2023-02-16T09:50:13.274Z,9.57
2023-02-16T09:52:58.018Z,9.79
2023-02-16T09:55:32.452Z,9.98
2023-02-16T09:58:25.444Z,10.25
2023-02-16T10:01:25.050Z,10.39
2023-02-16T10:04:13.002Z,10.51
2023-02-16T10:06:54.387Z,10.10
2023-02-16T10:09:22.091Z,10.41
2023-02-16T10:12:04.198Z,10.73
2023-02-16T10:14:50.093Z,10.55
2023-02-16T10:17:32.659Z,10.85
2023-02-16T10:20:06.356Z,11.14
2023-02-16T10:22:47.356Z,11.19
2023-02-16T10:25:37.651Z,11.12
2023-02-16T10:28:28.879Z,11.86
2023-02-16T10:31:06.228Z,12.31
2023-02-16T10:33:53.394Z,12.33
2023-02-16T10:36:55.357Z,12.95
2023-02-16T10:39:29.710Z,13.52
2023-02-16T10:42:27.156Z,13.40
2023-02-16T10:45:24.133Z,13.94
2023-02-16T10:47:56.762Z,14.86
2023-02-16T10:50:43.060Z,14.00
2023-02-16T10:53:21.104Z,13.10
2023-02-16T10:55:50.084Z,12.97
2023-02-16T10:58:29.210Z,12.67
2023-02-16T11:01:08.518Z,12.93
2023-02-16T11:03:46.679Z,12.96
2023-02-16T11:06:18.885Z,14.29
2023-02-16T11:08:59.222Z,15.39
2023-02-16T11:11:28.270Z,14.94
2023-02-16T11:14:23.939Z,13.93
2023-02-16T11:17:13.515Z,13.94
2023-02-16T11:19:50.481Z,13.08
2023-02-16T11:22:31.313Z,12.37
2023-02-16T11:25:22.669Z,11.79
2023-02-16T11:27:58.624Z,12.08
2023-02-16T11:30:41.511Z,12.09
2023-02-16T11:33:27.689Z,11.75
2023-02-16T11:35:55.938Z,12.01
2023-02-16T11:38:33.993Z,12.26
2023-02-16T11:41:05.074Z,12.42
2023-02-16T11:43:44.000Z,12.34
2023-02-16T11:46:20.678Z,11.98
2023-02-16T11:48:55.377Z,11.94
2023-02-16T11:51:36.482Z,11.95
2023-02-16T11:54:06.297Z,12.44
2023-02-16T11:56:37.899Z,12.47
2023-02-16T11:59:24.884Z,13.19
2023-02-16T12:02:31.730Z,13.39
2023-02-16T12:05:17.118Z,14.05
2023-02-16T12:08:10.724Z,14.22
2023-02-16T12:11:18.696Z,13.82
2023-02-16T12:14:36.386Z,13.64
2023-02-16T12:17:33.607Z,13.13
2023-02-16T12:20:17.309Z,12.76
2023-02-16T12:22:50.048Z,13.23
2023-02-16T12:25:27.134Z,13.17
2023-02-16T12:28:37.318Z,12.97
2023-02-16T12:31:31.495Z,13.15
2023-02-16T12:34:30.277Z,13.10
2023-02-16T12:37:18.027Z,13.07
2023-02-16T12:40:02.794Z,12.81
2023-02-16T12:42:55.283Z,13.07
2023-02-16T12:45:32.448Z,12.87
2023-02-16T12:48:11.494Z,12.85
2023-02-16T12:50:42.303Z,12.74
2023-02-16T12:53:27.499Z,12.60
2023-02-16T12:55:59.182Z,12.63
2023-02-16T12:58:32.406Z,12.54
2023-02-16T13:01:21.748Z,12.59
2023-02-16T13:04:14.491Z,12.63
2023-02-16T13:06:55.851Z,12.68
2023-02-16T13:09:53.379Z,12.37
2023-02-16T13:12:51.768Z,12.29
2023-02-16T13:16:29.152Z,12.39
2023-02-16T13:19:01.790Z,12.63
2023-02-16T13:21:51.226Z,12.69
2023-02-16T13:24:36.765Z,12.61
2023-02-16T13:27:25.052Z,12.75
2023-02-16T13:30:16.948Z,12.92
2023-02-16T13:32:45.061Z,12.90
2023-02-16T13:35:22.719Z,12.78
2023-02-16T13:38:23.298Z,13.37
2023-02-16T13:41:11.700Z,13.08
2023-02-16T13:44:12.323Z,12.90
2023-02-16T13:46:50.202Z,12.79
2023-02-16T13:49:29.148Z,12.66
2023-02-16T13:51:56.339Z,12.35
2023-02-16T13:54:40.205Z,12.46
2023-02-16T13:57:18.374Z,12.42
2023-02-16T13:59:58.476Z,12.50
2023-02-16T14:02:54.813Z,12.32
2023-02-16T14:05:35.212Z,12.04
2023-02-16T14:08:13.534Z,12.35
2023-02-16T14:10:55.467Z,12.55
2023-02-16T14:13:33.671Z,12.89
2023-02-16T14:16:17.351Z,13.14
2023-02-16T14:18:54.621Z,13.37
2023-02-16T14:21:48.250Z,13.44
2023-02-16T14:24:34.002Z,13.56
2023-02-16T14:27:09.632Z,13.36
2023-02-16T14:29:44.459Z,13.27
2023-02-16T14:32:39.290Z,13.27
2023-02-16T14:35:17.036Z,13.20
2023-02-16T14:37:55.166Z,12.64
2023-02-16T14:40:40.827Z,12.56
2023-02-16T14:43:24.992Z,12.65
2023-02-16T14:46:27.963Z,12.60
2023-02-16T14:49:43.192Z,12.78
2023-02-16T14:52:40.495Z,12.78
2023-02-16T14:55:18.243Z,12.66
2023-02-16T14:57:57.108Z,12.96
2023-02-16T15:00:29.098Z,13.18
2023-02-16T15:03:29.858Z,13.12
2023-02-16T15:06:06.657Z,13.05
2023-02-16T15:08:48.561Z,13.08
2023-02-16T15:12:10.452Z,12.97
2023-02-16T15:14:59.130Z,12.93
2023-02-16T15:17:39.930Z,12.87
2023-02-16T15:20:28.507Z,12.85
2023-02-16T15:23:01.399Z,12.96
2023-02-16T15:25:34.935Z,12.90
2023-02-16T15:28:12.723Z,12.59
2023-02-16T15:30:44.556Z,12.39
2023-02-16T15:33:27.296Z,12.54
2023-02-16T15:36:15.026Z,12.45
2023-02-16T15:38:54.814Z,12.18
2023-02-16T15:41:38.295Z,12.27
2023-02-16T15:44:17.774Z,12.34
2023-02-16T15:46:48.368Z,12.44
2023-02-16T15:49:28.341Z,12.42
2023-02-16T15:51:57.482Z,12.46
2023-02-16T15:54:35.536Z,12.25
2023-02-16T15:57:21.362Z,12.50
2023-02-16T15:59:52.963Z,12.36
2023-02-16T16:02:27.138Z,12.27
2023-02-16T16:05:05.864Z,12.28
2023-02-16T16:07:42.940Z,12.13
2023-02-16T16:10:27.072Z,12.13
2023-02-16T16:13:03.663Z,11.88
2023-02-16T16:15:36.058Z,12.07
2023-02-16T16:18:06.757Z,12.12
2023-02-16T16:20:38.517Z,11.84
2023-02-16T16:23:17.526Z,11.63
2023-02-16T16:25:49.010Z,11.51
2023-02-16T16:28:27.990Z,11.32
2023-02-16T16:31:17.521Z,11.19
2023-02-16T16:34:07.447Z,11.28
2023-02-16T16:36:46.849Z,11.38
2023-02-16T16:39:16.743Z,11.11
2023-02-16T16:42:16.416Z,11.08
2023-02-16T16:44:56.472Z,11.04
2023-02-16T16:47:34.435Z,10.99
2023-02-16T16:50:10.563Z,11.15
2023-02-16T16:52:52.485Z,11.17
2023-02-16T16:55:19.279Z,11.24
2023-02-16T16:57:53.734Z,11.31
2023-02-16T17:00:22.241Z,11.17
2023-02-16T17:02:50.033Z,11.21
2023-02-16T17:05:17.312Z,11.22
2023-02-16T17:07:48.890Z,11.21
2023-02-16T17:10:20.057Z,11.29
2023-02-16T17:12:52.015Z,11.43
2023-02-16T17:15:56.493Z,11.28
2023-02-16T17:18:29.123Z,11.27
2023-02-16T17:20:58.791Z,11.29
2023-02-16T17:23:28.065Z,11.07
2023-02-16T17:25:54.968Z,11.13
2023-02-16T17:28:22.123Z,11.07
2023-02-16T17:30:51.589Z,11.08
2023-02-16T17:33:18.507Z,10.92
2023-02-16T17:35:47.914Z,10.84
2023-02-16T17:38:22.863Z,10.81
2023-02-16T17:40:54.396Z,11.14
2023-02-16T17:43:25.726Z,11.15
2023-02-16T17:45:59.472Z,10.49
2023-02-16T17:48:30.383Z,10.86
2023-02-16T17:51:00.474Z,10.73
2023-02-16T17:53:32.856Z,10.77
2023-02-16T17:56:01.801Z,11.08
2023-02-16T17:58:28.715Z,10.42
2023-02-16T18:00:57.733Z,10.56
2023-02-16T18:03:27.682Z,10.86
2023-02-16T18:05:55.438Z,10.54
2023-02-16T18:08:22.874Z,10.37
2023-02-16T18:10:53.807Z,10.33
2023-02-16T18:13:20.843Z,10.57
2023-02-16T18:15:50.145Z,10.43
2023-02-16T18:18:20.151Z,10.49
2023-02-16T18:20:47.997Z,10.50
2023-02-16T18:23:15.369Z,10.46
2023-02-16T18:25:44.062Z,10.49
2023-02-16T18:28:20.935Z,10.41
2023-02-16T18:30:49.246Z,10.29
2023-02-16T18:33:23.214Z,10.24
2023-02-16T18:36:00.335Z,10.47
2023-02-16T18:38:27.755Z,10.23
2023-02-16T18:40:55.446Z,9.82
2023-02-16T18:43:23.176Z,10.19
2023-02-16T18:45:52.728Z,10.41
2023-02-16T18:48:21.761Z,10.39
2023-02-16T18:50:50.916Z,10.30
2023-02-16T18:53:22.978Z,10.62
2023-02-16T18:55:52.386Z,10.32
2023-02-16T18:58:19.744Z,10.41
2023-02-16T19:00:49.696Z,10.42
2023-02-16T19:03:16.772Z,10.61
2023-02-16T19:05:43.835Z,10.40
2023-02-16T19:08:10.854Z,10.40
2023-02-16T19:10:40.304Z,10.72
2023-02-16T19:13:10.348Z,10.76
2023-02-16T19:15:41.611Z,10.73
2023-02-16T19:18:08.534Z,10.86
2023-02-16T19:20:39.001Z,10.77
2023-02-16T19:23:10.409Z,10.80
2023-02-16T19:25:37.323Z,10.93
2023-02-16T19:28:04.509Z,10.85
2023-02-16T19:30:31.546Z,10.95
2023-02-16T19:33:00.866Z,10.99
2023-02-16T19:35:27.791Z,11.12
2023-02-16T19:37:57.113Z,10.93
2023-02-16T19:40:28.522Z,11.08
2023-02-16T19:42:57.776Z,11.06
2023-02-16T19:45:24.957Z,11.10
2023-02-16T19:47:51.885Z,11.02
2023-02-16T19:50:21.448Z,11.12
2023-02-16T19:52:48.355Z,10.97
2023-02-16T19:55:15.260Z,10.71
2023-02-16T19:57:44.353Z,10.64
2023-02-16T20:00:14.076Z,10.86
2023-02-16T20:02:41.005Z,10.63
2023-02-16T20:05:13.439Z,10.71
2023-02-16T20:07:40.504Z,10.72
2023-02-16T20:10:11.166Z,10.86
2023-02-16T20:12:38.136Z,10.75
2023-02-16T20:15:08.886Z,10.63
2023-02-16T20:17:35.857Z,10.92
2023-02-16T20:20:09.223Z,10.59
2023-02-16T20:22:38.225Z,10.61
2023-02-16T20:25:07.740Z,10.85
2023-02-16T20:27:35.001Z,10.42
2023-02-16T20:30:07.791Z,9.98
2023-02-16T20:32:36.897Z,10.09
2023-02-16T20:35:09.707Z,10.36
2023-02-16T20:37:41.219Z,10.16
2023-02-16T20:40:11.135Z,10.41
2023-02-16T20:42:38.051Z,10.44
2023-02-16T20:45:05.522Z,10.25
2023-02-16T20:47:32.461Z,10.22
2023-02-16T20:50:02.382Z,10.08
2023-02-16T20:52:34.470Z,10.09
2023-02-16T20:55:01.491Z,10.24
2023-02-16T20:57:28.404Z,10.15
2023-02-16T20:59:57.941Z,10.13
2023-02-16T21:02:24.912Z,10.15
2023-02-16T21:04:54.457Z,10.00
2023-02-16T21:07:21.374Z,10.10
2023-02-16T21:09:48.304Z,9.89
2023-02-16T21:12:20.038Z,10.15
2023-02-16T21:14:51.418Z,10.00
2023-02-16T21:17:18.540Z,10.08
2023-02-16T21:19:45.697Z,10.25
2023-02-16T21:22:17.308Z,10.21
2023-02-16T21:24:46.753Z,10.11
2023-02-16T21:27:16.659Z,10.16
2023-02-16T21:29:43.792Z,10.21
2023-02-16T21:32:13.904Z,10.30
2023-02-16T21:34:40.947Z,10.44
2023-02-16T21:37:14.912Z,10.45
2023-02-16T21:40:02.660Z,10.26
2023-02-16T21:42:32.088Z,10.40
2023-02-16T21:45:13.905Z,10.17
2023-02-16T21:48:05.885Z,10.32
2023-02-16T21:50:39.882Z,10.44
2023-02-16T21:53:10.036Z,10.12
2023-02-16T21:55:58.841Z,10.08
2023-02-16T21:58:30.161Z,10.31
2023-02-16T22:01:00.609Z,10.22
2023-02-16T22:03:28.262Z,10.44
2023-02-16T22:05:55.255Z,10.30
2023-02-16T22:08:22.120Z,10.21
2023-02-16T22:10:56.105Z,10.02
2023-02-16T22:13:23.023Z,10.03
2023-02-16T22:15:52.082Z,10.31
2023-02-16T22:18:21.036Z,10.13
2023-02-16T22:20:52.605Z,10.04
2023-02-16T22:23:22.119Z,9.96
2023-02-16T22:25:51.463Z,9.80
2023-02-16T22:28:20.420Z,9.84
2023-02-16T22:30:50.346Z,10.09
2023-02-16T22:33:17.261Z,10.15
2023-02-16T22:35:48.815Z,10.19
2023-02-16T22:38:16.926Z,10.02
2023-02-16T22:40:43.902Z,10.02
2023-02-16T22:43:13.225Z,10.20
2023-02-16T22:45:40.170Z,10.18
2023-02-16T22:48:10.066Z,10.22
2023-02-16T22:50:41.529Z,9.97
2023-02-16T22:53:11.613Z,9.97
2023-02-16T22:55:41.749Z,9.97
2023-02-16T22:58:11.006Z,9.94
2023-02-16T23:00:40.470Z,9.81
2023-02-16T23:03:09.372Z,9.71
2023-02-16T23:05:36.297Z,9.79
2023-02-16T23:08:05.512Z,9.81
2023-02-16T23:10:37.785Z,9.73
2023-02-16T23:13:10.578Z,9.85
2023-02-16T23:15:37.894Z,10.01
2023-02-16T23:18:04.880Z,10.02
2023-02-16T23:20:34.235Z,10.10
2023-02-16T23:23:01.137Z,9.84
2023-02-16T23:25:33.672Z,10.08
2023-02-16T23:28:06.363Z,9.98
2023-02-16T23:30:33.372Z,10.03
2023-02-16T23:33:02.418Z,9.95
2023-02-16T23:35:34.172Z,9.94
2023-02-16T23:38:02.779Z,9.92
2023-02-16T23:40:32.351Z,9.93
2023-02-16T23:43:01.799Z,9.88
2023-02-16T23:45:31.248Z,10.07
2023-02-16T23:47:58.201Z,9.99
2023-02-16T23:50:31.241Z,10.13
2023-02-16T23:52:58.112Z,10.05
2023-02-16T23:55:25.059Z,9.88
2023-02-16T23:57:54.169Z,9.78
